sensor_id;sensor_type;location;lat;lon;timestamp;P1;durP1;ratioP1;P2;durP2;ratioP2
16147;SDS011;8179;59.364;18.018;2022-07-22T00:00:19;14.77;;;13.30;;
16147;SDS011;8179;59.364;18.018;2022-07-22T00:02:45;17.67;;;12.88;;
16147;SDS011;8179;59.364;18.018;2022-07-22T00:05:12;13.35;;;12.00;;
16147;SDS011;8179;59.364;18.018;2022-07-22T00:07:39;15.88;;;13.20;;
16147;SDS011;8179;59.364;18.018;2022-07-22T00:10:06;13.05;;;11.90;;
16147;SDS011;8179;59.364;18.018;2022-07-22T00:12:33;15.00;;;13.60;;
16147;SDS011;8179;59.364;18.018;2022-07-22T00:15:00;13.48;;;12.18;;
16147;SDS011;8179;59.364;18.018;2022-07-22T00:17:26;14.60;;;13.15;;
16147;SDS011;8179;59.364;18.018;2022-07-22T00:19:52;16.42;;;12.77;;
16147;SDS011;8179;59.364;18.018;2022-07-22T00:22:19;14.32;;;12.93;;
16147;SDS011;8179;59.364;18.018;2022-07-22T00:24:47;15.02;;;13.52;;
16147;SDS011;8179;59.364;18.018;2022-07-22T00:27:13;13.90;;;11.95;;
16147;SDS011;8179;59.364;18.018;2022-07-22T00:29:39;12.85;;;11.77;;
16147;SDS011;8179;59.364;18.018;2022-07-22T00:32:06;14.50;;;13.10;;
16147;SDS011;8179;59.364;18.018;2022-07-22T00:34:32;17.90;;;12.85;;
16147;SDS011;8179;59.364;18.018;2022-07-22T00:36:59;13.48;;;12.18;;
16147;SDS011;8179;59.364;18.018;2022-07-22T00:39:25;14.75;;;12.68;;
16147;SDS011;8179;59.364;18.018;2022-07-22T00:41:53;13.63;;;12.40;;
16147;SDS011;8179;59.364;18.018;2022-07-22T00:44:19;13.18;;;11.88;;
16147;SDS011;8179;59.364;18.018;2022-07-22T00:46:45;10.13;;;7.95;;
16147;SDS011;8179;59.364;18.018;2022-07-22T00:49:12;18.73;;;12.88;;
16147;SDS011;8179;59.364;18.018;2022-07-22T00:51:38;13.15;;;11.98;;
16147;SDS011;8179;59.364;18.018;2022-07-22T00:54:05;16.63;;;13.15;;
16147;SDS011;8179;59.364;18.018;2022-07-22T00:56:32;13.73;;;12.43;;
16147;SDS011;8179;59.364;18.018;2022-07-22T00:59:01;14.98;;;13.52;;
16147;SDS011;8179;59.364;18.018;2022-07-22T01:01:28;14.05;;;12.68;;
16147;SDS011;8179;59.364;18.018;2022-07-22T01:03:54;14.30;;;12.88;;
16147;SDS011;8179;59.364;18.018;2022-07-22T01:06:21;14.82;;;13.38;;
16147;SDS011;8179;59.364;18.018;2022-07-22T01:08:48;13.32;;;12.05;;
16147;SDS011;8179;59.364;18.018;2022-07-22T01:11:15;14.07;;;12.50;;
16147;SDS011;8179;59.364;18.018;2022-07-22T01:13:42;14.65;;;13.15;;
16147;SDS011;8179;59.364;18.018;2022-07-22T01:16:10;13.93;;;12.65;;
16147;SDS011;8179;59.364;18.018;2022-07-22T01:18:37;14.52;;;13.15;;
16147;SDS011;8179;59.364;18.018;2022-07-22T01:21:06;16.08;;;13.45;;
16147;SDS011;8179;59.364;18.018;2022-07-22T01:23:33;16.10;;;13.75;;
16147;SDS011;8179;59.364;18.018;2022-07-22T01:25:59;20.85;;;13.63;;
16147;SDS011;8179;59.364;18.018;2022-07-22T01:28:26;14.98;;;13.48;;
16147;SDS011;8179;59.364;18.018;2022-07-22T01:30:52;15.27;;;13.73;;
16147;SDS011;8179;59.364;18.018;2022-07-22T01:33:19;15.43;;;13.93;;
16147;SDS011;8179;59.364;18.018;2022-07-22T01:35:46;17.08;;;15.27;;
16147;SDS011;8179;59.364;18.018;2022-07-22T01:38:15;15.00;;;13.02;;
16147;SDS011;8179;59.364;18.018;2022-07-22T01:40:42;15.02;;;13.38;;
16147;SDS011;8179;59.364;18.018;2022-07-22T01:43:08;13.70;;;12.38;;
16147;SDS011;8179;59.364;18.018;2022-07-22T01:45:35;15.68;;;14.27;;
16147;SDS011;8179;59.364;18.018;2022-07-22T01:48:01;17.48;;;14.57;;
16147;SDS011;8179;59.364;18.018;2022-07-22T01:50:28;15.52;;;14.15;;
16147;SDS011;8179;59.364;18.018;2022-07-22T01:52:54;14.85;;;13.65;;
16147;SDS011;8179;59.364;18.018;2022-07-22T01:55:22;16.35;;;14.80;;
16147;SDS011;8179;59.364;18.018;2022-07-22T01:57:48;15.60;;;14.00;;
16147;SDS011;8179;59.364;18.018;2022-07-22T02:00:15;15.90;;;14.13;;
16147;SDS011;8179;59.364;18.018;2022-07-22T02:02:42;15.55;;;13.57;;
16147;SDS011;8179;59.364;18.018;2022-07-22T02:05:08;15.70;;;14.38;;
16147;SDS011;8179;59.364;18.018;2022-07-22T02:07:35;15.50;;;13.98;;
16147;SDS011;8179;59.364;18.018;2022-07-22T02:10:01;18.80;;;15.05;;
16147;SDS011;8179;59.364;18.018;2022-07-22T02:12:29;15.35;;;13.85;;
16147;SDS011;8179;59.364;18.018;2022-07-22T02:14:56;16.10;;;14.57;;
16147;SDS011;8179;59.364;18.018;2022-07-22T02:17:22;16.90;;;15.20;;
16147;SDS011;8179;59.364;18.018;2022-07-22T02:19:48;15.52;;;13.98;;
16147;SDS011;8179;59.364;18.018;2022-07-22T02:22:15;15.57;;;14.15;;
16147;SDS011;8179;59.364;18.018;2022-07-22T02:24:41;15.98;;;14.30;;
16147;SDS011;8179;59.364;18.018;2022-07-22T02:27:08;15.80;;;14.32;;
16147;SDS011;8179;59.364;18.018;2022-07-22T02:29:36;15.35;;;14.02;;
16147;SDS011;8179;59.364;18.018;2022-07-22T02:32:02;14.98;;;13.50;;
16147;SDS011;8179;59.364;18.018;2022-07-22T02:34:29;15.85;;;14.40;;
16147;SDS011;8179;59.364;18.018;2022-07-22T02:36:55;15.13;;;13.13;;
16147;SDS011;8179;59.364;18.018;2022-07-22T02:39:22;15.45;;;13.85;;
16147;SDS011;8179;59.364;18.018;2022-07-22T02:41:48;15.95;;;14.30;;
16147;SDS011;8179;59.364;18.018;2022-07-22T02:44:14;15.65;;;13.80;;
16147;SDS011;8179;59.364;18.018;2022-07-22T02:46:42;16.00;;;14.40;;
16147;SDS011;8179;59.364;18.018;2022-07-22T02:49:08;15.88;;;14.25;;
16147;SDS011;8179;59.364;18.018;2022-07-22T02:51:35;14.45;;;13.10;;
16147;SDS011;8179;59.364;18.018;2022-07-22T02:54:01;17.02;;;15.20;;
16147;SDS011;8179;59.364;18.018;2022-07-22T02:56:27;15.20;;;13.77;;
16147;SDS011;8179;59.364;18.018;2022-07-22T02:58:54;15.73;;;14.40;;
16147;SDS011;8179;59.364;18.018;2022-07-22T03:01:20;16.20;;;14.40;;
16147;SDS011;8179;59.364;18.018;2022-07-22T03:03:48;15.60;;;13.98;;
16147;SDS011;8179;59.364;18.018;2022-07-22T03:06:15;14.45;;;13.10;;
16147;SDS011;8179;59.364;18.018;2022-07-22T03:08:41;16.13;;;14.48;;
16147;SDS011;8179;59.364;18.018;2022-07-22T03:11:08;16.88;;;15.13;;
16147;SDS011;8179;59.364;18.018;2022-07-22T03:13:34;15.52;;;13.68;;
16147;SDS011;8179;59.364;18.018;2022-07-22T03:16:00;15.25;;;13.98;;
16147;SDS011;8179;59.364;18.018;2022-07-22T03:18:27;14.63;;;13.45;;
16147;SDS011;8179;59.364;18.018;2022-07-22T03:20:54;14.30;;;12.90;;
16147;SDS011;8179;59.364;18.018;2022-07-22T03:23:21;15.18;;;13.98;;
16147;SDS011;8179;59.364;18.018;2022-07-22T03:25:47;21.48;;;14.40;;
16147;SDS011;8179;59.364;18.018;2022-07-22T03:28:14;19.52;;;12.90;;
16147;SDS011;8179;59.364;18.018;2022-07-22T03:30:40;13.98;;;12.60;;
16147;SDS011;8179;59.364;18.018;2022-07-22T03:33:06;14.38;;;13.05;;
16147;SDS011;8179;59.364;18.018;2022-07-22T03:35:33;14.45;;;13.25;;
16147;SDS011;8179;59.364;18.018;2022-07-22T03:38:01;15.48;;;14.07;;
16147;SDS011;8179;59.364;18.018;2022-07-22T03:40:28;15.23;;;13.90;;
16147;SDS011;8179;59.364;18.018;2022-07-22T03:42:54;14.07;;;12.68;;
16147;SDS011;8179;59.364;18.018;2022-07-22T03:45:21;15.52;;;14.05;;
16147;SDS011;8179;59.364;18.018;2022-07-22T03:47:47;14.98;;;13.57;;
16147;SDS011;8179;59.364;18.018;2022-07-22T03:50:13;13.85;;;12.75;;
16147;SDS011;8179;59.364;18.018;2022-07-22T03:52:40;14.15;;;13.00;;
16147;SDS011;8179;59.364;18.018;2022-07-22T03:55:08;13.68;;;12.38;;
16147;SDS011;8179;59.364;18.018;2022-07-22T03:57:34;14.85;;;13.43;;
16147;SDS011;8179;59.364;18.018;2022-07-22T04:00:00;15.52;;;13.73;;
16147;SDS011;8179;59.364;18.018;2022-07-22T04:02:27;14.63;;;13.07;;
16147;SDS011;8179;59.364;18.018;2022-07-22T04:04:53;14.27;;;12.77;;
16147;SDS011;8179;59.364;18.018;2022-07-22T04:07:19;14.27;;;12.88;;
16147;SDS011;8179;59.364;18.018;2022-07-22T04:09:46;11.23;;;8.73;;
16147;SDS011;8179;59.364;18.018;2022-07-22T04:12:14;13.50;;;12.25;;
16147;SDS011;8179;59.364;18.018;2022-07-22T04:14:40;14.88;;;13.35;;
16147;SDS011;8179;59.364;18.018;2022-07-22T04:17:07;14.18;;;12.88;;
16147;SDS011;8179;59.364;18.018;2022-07-22T04:19:33;14.38;;;13.18;;
16147;SDS011;8179;59.364;18.018;2022-07-22T04:21:59;14.38;;;13.13;;
16147;SDS011;8179;59.364;18.018;2022-07-22T04:24:26;14.45;;;12.93;;
16147;SDS011;8179;59.364;18.018;2022-07-22T04:26:52;13.70;;;12.35;;
16147;SDS011;8179;59.364;18.018;2022-07-22T04:29:20;22.95;;;12.70;;
16147;SDS011;8179;59.364;18.018;2022-07-22T04:31:46;13.57;;;12.38;;
16147;SDS011;8179;59.364;18.018;2022-07-22T04:34:12;13.30;;;12.13;;
16147;SDS011;8179;59.364;18.018;2022-07-22T04:36:39;14.68;;;13.32;;
16147;SDS011;8179;59.364;18.018;2022-07-22T04:39:05;14.30;;;13.10;;
16147;SDS011;8179;59.364;18.018;2022-07-22T04:41:31;13.07;;;11.82;;
16147;SDS011;8179;59.364;18.018;2022-07-22T04:43:58;14.52;;;13.23;;
16147;SDS011;8179;59.364;18.018;2022-07-22T04:46:26;14.48;;;13.05;;
16147;SDS011;8179;59.364;18.018;2022-07-22T04:48:52;12.45;;;11.32;;
16147;SDS011;8179;59.364;18.018;2022-07-22T04:51:19;14.25;;;12.23;;
16147;SDS011;8179;59.364;18.018;2022-07-22T04:53:45;13.77;;;12.60;;
16147;SDS011;8179;59.364;18.018;2022-07-22T04:56:11;14.15;;;12.60;;
16147;SDS011;8179;59.364;18.018;2022-07-22T04:58:38;14.57;;;13.27;;
16147;SDS011;8179;59.364;18.018;2022-07-22T05:01:04;13.73;;;12.38;;
16147;SDS011;8179;59.364;18.018;2022-07-22T05:03:32;13.25;;;12.13;;
16147;SDS011;8179;59.364;18.018;2022-07-22T05:05:59;13.90;;;12.68;;
16147;SDS011;8179;59.364;18.018;2022-07-22T05:08:26;12.95;;;11.80;;
16147;SDS011;8179;59.364;18.018;2022-07-22T05:10:52;15.68;;;13.30;;
16147;SDS011;8179;59.364;18.018;2022-07-22T05:13:18;18.75;;;13.25;;
16147;SDS011;8179;59.364;18.018;2022-07-22T05:15:45;13.18;;;12.05;;
16147;SDS011;8179;59.364;18.018;2022-07-22T05:18:11;13.65;;;12.50;;
16147;SDS011;8179;59.364;18.018;2022-07-22T05:20:39;16.30;;;12.68;;
16147;SDS011;8179;59.364;18.018;2022-07-22T05:23:05;13.23;;;12.02;;
16147;SDS011;8179;59.364;18.018;2022-07-22T05:25:32;14.25;;;13.05;;
16147;SDS011;8179;59.364;18.018;2022-07-22T05:27:58;12.10;;;10.93;;
16147;SDS011;8179;59.364;18.018;2022-07-22T05:30:25;14.57;;;13.38;;
16147;SDS011;8179;59.364;18.018;2022-07-22T05:32:51;14.98;;;13.68;;
16147;SDS011;8179;59.364;18.018;2022-07-22T05:35:17;13.50;;;12.38;;
16147;SDS011;8179;59.364;18.018;2022-07-22T05:37:45;13.32;;;11.82;;
16147;SDS011;8179;59.364;18.018;2022-07-22T05:40:12;16.98;;;13.48;;
16147;SDS011;8179;59.364;18.018;2022-07-22T05:42:38;13.40;;;12.10;;
16147;SDS011;8179;59.364;18.018;2022-07-22T05:45:05;13.13;;;12.02;;
16147;SDS011;8179;59.364;18.018;2022-07-22T05:47:31;13.65;;;12.43;;
16147;SDS011;8179;59.364;18.018;2022-07-22T05:49:58;13.52;;;12.13;;
16147;SDS011;8179;59.364;18.018;2022-07-22T05:52:24;13.10;;;11.98;;
16147;SDS011;8179;59.364;18.018;2022-07-22T05:54:52;13.80;;;12.50;;
16147;SDS011;8179;59.364;18.018;2022-07-22T05:57:19;14.00;;;12.45;;
16147;SDS011;8179;59.364;18.018;2022-07-22T05:59:45;12.65;;;11.55;;
16147;SDS011;8179;59.364;18.018;2022-07-22T06:02:12;13.35;;;12.32;;
16147;SDS011;8179;59.364;18.018;2022-07-22T06:04:38;13.82;;;12.60;;
16147;SDS011;8179;59.364;18.018;2022-07-22T06:07:04;13.05;;;11.98;;
16147;SDS011;8179;59.364;18.018;2022-07-22T06:09:31;14.95;;;12.57;;
16147;SDS011;8179;59.364;18.018;2022-07-22T06:11:59;12.88;;;11.60;;
16147;SDS011;8179;59.364;18.018;2022-07-22T06:14:25;13.60;;;12.23;;
16147;SDS011;8179;59.364;18.018;2022-07-22T06:16:52;13.75;;;12.30;;
16147;SDS011;8179;59.364;18.018;2022-07-22T06:19:18;13.07;;;11.82;;
16147;SDS011;8179;59.364;18.018;2022-07-22T06:21:44;10.85;;;9.80;;
16147;SDS011;8179;59.364;18.018;2022-07-22T06:24:11;14.05;;;12.75;;
16147;SDS011;8179;59.364;18.018;2022-07-22T06:26:37;14.25;;;12.95;;
16147;SDS011;8179;59.364;18.018;2022-07-22T06:29:05;13.02;;;11.93;;
16147;SDS011;8179;59.364;18.018;2022-07-22T06:31:31;13.25;;;12.10;;
16147;SDS011;8179;59.364;18.018;2022-07-22T06:33:58;13.27;;;11.98;;
16147;SDS011;8179;59.364;18.018;2022-07-22T06:36:24;12.85;;;11.63;;
16147;SDS011;8179;59.364;18.018;2022-07-22T06:38:50;16.13;;;13.30;;
16147;SDS011;8179;59.364;18.018;2022-07-22T06:41:17;12.30;;;11.23;;
16147;SDS011;8179;59.364;18.018;2022-07-22T06:43:44;13.13;;;11.90;;
16147;SDS011;8179;59.364;18.018;2022-07-22T06:46:12;16.33;;;13.38;;
16147;SDS011;8179;59.364;18.018;2022-07-22T06:48:38;13.32;;;12.00;;
16147;SDS011;8179;59.364;18.018;2022-07-22T06:51:05;13.73;;;12.50;;
16147;SDS011;8179;59.364;18.018;2022-07-22T06:53:31;15.18;;;13.90;;
16147;SDS011;8179;59.364;18.018;2022-07-22T06:55:58;13.80;;;12.52;;
16147;SDS011;8179;59.364;18.018;2022-07-22T06:58:24;14.65;;;13.20;;
16147;SDS011;8179;59.364;18.018;2022-07-22T07:00:51;14.43;;;13.02;;
16147;SDS011;8179;59.364;18.018;2022-07-22T07:03:18;14.43;;;13.02;;
16147;SDS011;8179;59.364;18.018;2022-07-22T07:05:45;13.32;;;12.10;;
16147;SDS011;8179;59.364;18.018;2022-07-22T07:08:11;19.83;;;14.30;;
16147;SDS011;8179;59.364;18.018;2022-07-22T07:10:38;17.77;;;13.65;;
16147;SDS011;8179;59.364;18.018;2022-07-22T07:13:04;14.05;;;12.65;;
16147;SDS011;8179;59.364;18.018;2022-07-22T07:15:30;14.63;;;13.27;;
16147;SDS011;8179;59.364;18.018;2022-07-22T07:17:57;13.82;;;12.40;;
16147;SDS011;8179;59.364;18.018;2022-07-22T07:20:24;14.65;;;13.30;;
16147;SDS011;8179;59.364;18.018;2022-07-22T07:22:51;14.73;;;13.05;;
16147;SDS011;8179;59.364;18.018;2022-07-22T07:25:17;14.20;;;12.88;;
16147;SDS011;8179;59.364;18.018;2022-07-22T07:27:44;16.27;;;13.63;;
16147;SDS011;8179;59.364;18.018;2022-07-22T07:30:10;13.68;;;12.48;;
16147;SDS011;8179;59.364;18.018;2022-07-22T07:32:37;14.05;;;12.75;;
16147;SDS011;8179;59.364;18.018;2022-07-22T07:35:04;15.18;;;13.60;;
16147;SDS011;8179;59.364;18.018;2022-07-22T07:37:32;13.15;;;12.18;;
16147;SDS011;8179;59.364;18.018;2022-07-22T07:39:59;11.88;;;10.77;;
16147;SDS011;8179;59.364;18.018;2022-07-22T07:42:25;13.48;;;12.18;;
16147;SDS011;8179;59.364;18.018;2022-07-22T07:44:52;14.55;;;13.23;;
16147;SDS011;8179;59.364;18.018;2022-07-22T07:47:19;14.68;;;13.15;;
16147;SDS011;8179;59.364;18.018;2022-07-22T07:49:45;13.55;;;12.20;;
16147;SDS011;8179;59.364;18.018;2022-07-22T07:52:12;14.35;;;12.98;;
16147;SDS011;8179;59.364;18.018;2022-07-22T07:54:40;18.15;;;12.95;;
16147;SDS011;8179;59.364;18.018;2022-07-22T07:57:07;15.23;;;13.45;;
16147;SDS011;8179;59.364;18.018;2022-07-22T07:59:33;16.52;;;13.60;;
16147;SDS011;8179;59.364;18.018;2022-07-22T08:02:00;13.20;;;12.10;;
16147;SDS011;8179;59.364;18.018;2022-07-22T08:04:26;12.93;;;11.70;;
16147;SDS011;8179;59.364;18.018;2022-07-22T08:06:52;14.20;;;12.82;;
16147;SDS011;8179;59.364;18.018;2022-07-22T08:09:19;13.35;;;12.05;;
16147;SDS011;8179;59.364;18.018;2022-07-22T08:11:47;11.50;;;10.48;;
16147;SDS011;8179;59.364;18.018;2022-07-22T08:14:13;16.55;;;12.07;;
16147;SDS011;8179;59.364;18.018;2022-07-22T08:16:39;11.40;;;10.40;;
16147;SDS011;8179;59.364;18.018;2022-07-22T08:19:06;11.73;;;10.75;;
16147;SDS011;8179;59.364;18.018;2022-07-22T08:21:32;12.10;;;11.10;;
16147;SDS011;8179;59.364;18.018;2022-07-22T08:23:58;11.90;;;10.43;;
16147;SDS011;8179;59.364;18.018;2022-07-22T08:26:25;12.07;;;11.10;;
16147;SDS011;8179;59.364;18.018;2022-07-22T08:28:53;12.15;;;10.95;;
16147;SDS011;8179;59.364;18.018;2022-07-22T08:31:19;13.23;;;10.70;;
16147;SDS011;8179;59.364;18.018;2022-07-22T08:33:46;11.52;;;10.55;;
16147;SDS011;8179;59.364;18.018;2022-07-22T08:36:12;12.10;;;10.38;;
16147;SDS011;8179;59.364;18.018;2022-07-22T08:38:38;8.55;;;7.88;;
16147;SDS011;8179;59.364;18.018;2022-07-22T08:41:05;9.43;;;8.50;;
16147;SDS011;8179;59.364;18.018;2022-07-22T08:43:32;9.35;;;8.52;;
16147;SDS011;8179;59.364;18.018;2022-07-22T08:46:00;14.32;;;11.18;;
16147;SDS011;8179;59.364;18.018;2022-07-22T08:48:27;10.70;;;9.55;;
16147;SDS011;8179;59.364;18.018;2022-07-22T08:50:54;13.05;;;10.45;;
16147;SDS011;8179;59.364;18.018;2022-07-22T08:53:20;10.20;;;8.20;;
16147;SDS011;8179;59.364;18.018;2022-07-22T08:55:47;9.27;;;5.95;;
16147;SDS011;8179;59.364;18.018;2022-07-22T08:58:14;10.60;;;9.23;;
16147;SDS011;8179;59.364;18.018;2022-07-22T09:00:42;15.38;;;8.30;;
16147;SDS011;8179;59.364;18.018;2022-07-22T09:03:23;9.85;;;8.90;;
16147;SDS011;8179;59.364;18.018;2022-07-22T09:05:52;12.27;;;9.02;;
16147;SDS011;8179;59.364;18.018;2022-07-22T09:08:19;14.35;;;9.25;;
16147;SDS011;8179;59.364;18.018;2022-07-22T09:10:45;8.85;;;8.02;;
16147;SDS011;8179;59.364;18.018;2022-07-22T09:13:13;10.73;;;8.25;;
16147;SDS011;8179;59.364;18.018;2022-07-22T09:15:48;13.85;;;9.73;;
16147;SDS011;8179;59.364;18.018;2022-07-22T09:18:15;11.00;;;9.65;;
16147;SDS011;8179;59.364;18.018;2022-07-22T09:20:43;9.73;;;8.60;;
16147;SDS011;8179;59.364;18.018;2022-07-22T09:23:10;10.25;;;9.23;;
16147;SDS011;8179;59.364;18.018;2022-07-22T09:25:37;4.40;;;4.10;;
16147;SDS011;8179;59.364;18.018;2022-07-22T09:28:11;5.88;;;5.35;;
16147;SDS011;8179;59.364;18.018;2022-07-22T09:30:38;11.02;;;8.73;;
16147;SDS011;8179;59.364;18.018;2022-07-22T09:33:05;15.02;;;9.23;;
16147;SDS011;8179;59.364;18.018;2022-07-22T09:35:32;12.15;;;9.32;;
16147;SDS011;8179;59.364;18.018;2022-07-22T09:38:01;11.70;;;9.13;;
16147;SDS011;8179;59.364;18.018;2022-07-22T09:40:29;13.35;;;9.88;;
16147;SDS011;8179;59.364;18.018;2022-07-22T09:42:56;10.50;;;7.68;;
16147;SDS011;8179;59.364;18.018;2022-07-22T09:45:24;16.05;;;9.45;;
16147;SDS011;8179;59.364;18.018;2022-07-22T09:47:51;12.23;;;7.95;;
16147;SDS011;8179;59.364;18.018;2022-07-22T09:50:21;8.20;;;7.40;;
16147;SDS011;8179;59.364;18.018;2022-07-22T09:52:47;14.32;;;9.75;;
16147;SDS011;8179;59.364;18.018;2022-07-22T09:55:16;13.20;;;8.75;;
16147;SDS011;8179;59.364;18.018;2022-07-22T09:57:43;12.30;;;9.82;;
16147;SDS011;8179;59.364;18.018;2022-07-22T10:00:10;10.00;;;9.10;;
16147;SDS011;8179;59.364;18.018;2022-07-22T10:02:40;9.73;;;8.32;;
16147;SDS011;8179;59.364;18.018;2022-07-22T10:05:08;9.98;;;8.75;;
16147;SDS011;8179;59.364;18.018;2022-07-22T10:07:34;12.00;;;9.60;;
16147;SDS011;8179;59.364;18.018;2022-07-22T10:10:02;9.98;;;9.15;;
16147;SDS011;8179;59.364;18.018;2022-07-22T10:12:30;10.10;;;8.80;;
16147;SDS011;8179;59.364;18.018;2022-07-22T10:14:57;10.27;;;9.38;;
16147;SDS011;8179;59.364;18.018;2022-07-22T10:17:23;10.95;;;9.82;;
16147;SDS011;8179;59.364;18.018;2022-07-22T10:19:50;15.40;;;10.98;;
16147;SDS011;8179;59.364;18.018;2022-07-22T10:25:00;9.82;;;8.57;;
16147;SDS011;8179;59.364;18.018;2022-07-22T10:30:10;9.40;;;8.55;;
16147;SDS011;8179;59.364;18.018;2022-07-22T10:32:37;9.13;;;8.13;;
16147;SDS011;8179;59.364;18.018;2022-07-22T10:35:20;12.43;;;11.13;;
16147;SDS011;8179;59.364;18.018;2022-07-22T10:37:48;10.45;;;9.38;;
16147;SDS011;8179;59.364;18.018;2022-07-22T10:40:15;11.32;;;9.98;;
16147;SDS011;8179;59.364;18.018;2022-07-22T10:45:30;9.25;;;8.45;;
16147;SDS011;8179;59.364;18.018;2022-07-22T10:47:57;12.48;;;11.32;;
16147;SDS011;8179;59.364;18.018;2022-07-22T10:50:38;12.57;;;10.85;;
16147;SDS011;8179;59.364;18.018;2022-07-22T10:53:05;14.10;;;11.20;;
16147;SDS011;8179;59.364;18.018;2022-07-22T10:55:32;11.70;;;10.60;;
16147;SDS011;8179;59.364;18.018;2022-07-22T10:57:59;16.00;;;11.30;;
16147;SDS011;8179;59.364;18.018;2022-07-22T11:00:25;13.02;;;11.73;;
16147;SDS011;8179;59.364;18.018;2022-07-22T11:02:53;16.15;;;11.68;;
16147;SDS011;8179;59.364;18.018;2022-07-22T11:05:24;15.07;;;11.13;;
16147;SDS011;8179;59.364;18.018;2022-07-22T11:07:50;14.07;;;12.60;;
16147;SDS011;8179;59.364;18.018;2022-07-22T11:10:17;14.85;;;11.32;;
16147;SDS011;8179;59.364;18.018;2022-07-22T11:12:44;12.65;;;11.15;;
16147;SDS011;8179;59.364;18.018;2022-07-22T11:15:11;13.88;;;11.77;;
16147;SDS011;8179;59.364;18.018;2022-07-22T11:17:38;12.38;;;8.75;;
16147;SDS011;8179;59.364;18.018;2022-07-22T11:20:07;13.93;;;12.63;;
16147;SDS011;8179;59.364;18.018;2022-07-22T11:22:35;14.48;;;12.23;;
16147;SDS011;8179;59.364;18.018;2022-07-22T11:25:03;15.95;;;12.77;;
16147;SDS011;8179;59.364;18.018;2022-07-22T11:27:29;16.02;;;12.82;;
16147;SDS011;8179;59.364;18.018;2022-07-22T11:29:56;10.93;;;9.70;;
16147;SDS011;8179;59.364;18.018;2022-07-22T11:32:23;10.32;;;8.98;;
16147;SDS011;8179;59.364;18.018;2022-07-22T11:34:50;13.02;;;11.00;;
16147;SDS011;8179;59.364;18.018;2022-07-22T11:37:18;13.13;;;10.07;;
16147;SDS011;8179;59.364;18.018;2022-07-22T11:39:45;14.32;;;12.77;;
16147;SDS011;8179;59.364;18.018;2022-07-22T11:42:11;14.18;;;12.73;;
16147;SDS011;8179;59.364;18.018;2022-07-22T11:44:38;14.50;;;11.38;;
16147;SDS011;8179;59.364;18.018;2022-07-22T11:47:05;10.65;;;9.48;;
16147;SDS011;8179;59.364;18.018;2022-07-22T11:49:33;15.77;;;11.02;;
16147;SDS011;8179;59.364;18.018;2022-07-22T11:52:00;13.50;;;7.72;;
16147;SDS011;8179;59.364;18.018;2022-07-22T11:54:28;15.10;;;13.35;;
16147;SDS011;8179;59.364;18.018;2022-07-22T11:56:54;18.23;;;12.57;;
16147;SDS011;8179;59.364;18.018;2022-07-22T11:59:21;17.92;;;13.15;;
16147;SDS011;8179;59.364;18.018;2022-07-22T12:01:48;15.98;;;11.60;;
16147;SDS011;8179;59.364;18.018;2022-07-22T12:04:16;17.92;;;10.65;;
16147;SDS011;8179;59.364;18.018;2022-07-22T12:06:43;20.10;;;11.52;;
16147;SDS011;8179;59.364;18.018;2022-07-22T12:09:10;17.42;;;12.25;;
16147;SDS011;8179;59.364;18.018;2022-07-22T12:11:39;18.95;;;11.20;;
16147;SDS011;8179;59.364;18.018;2022-07-22T12:14:06;13.75;;;12.23;;
16147;SDS011;8179;59.364;18.018;2022-07-22T12:16:33;10.65;;;9.55;;
16147;SDS011;8179;59.364;18.018;2022-07-22T12:19:02;17.48;;;13.32;;
16147;SDS011;8179;59.364;18.018;2022-07-22T12:21:31;16.77;;;15.02;;
16147;SDS011;8179;59.364;18.018;2022-07-22T12:24:00;17.73;;;14.75;;
16147;SDS011;8179;59.364;18.018;2022-07-22T12:26:41;20.02;;;16.67;;
16147;SDS011;8179;59.364;18.018;2022-07-22T12:29:20;17.52;;;14.15;;
16147;SDS011;8179;59.364;18.018;2022-07-22T12:31:48;14.52;;;11.98;;
16147;SDS011;8179;59.364;18.018;2022-07-22T12:34:15;17.08;;;13.75;;
16147;SDS011;8179;59.364;18.018;2022-07-22T12:36:45;14.82;;;11.98;;
16147;SDS011;8179;59.364;18.018;2022-07-22T12:39:16;17.73;;;13.75;;
16147;SDS011;8179;59.364;18.018;2022-07-22T12:41:48;15.70;;;12.13;;
16147;SDS011;8179;59.364;18.018;2022-07-22T12:44:16;14.85;;;11.27;;
16147;SDS011;8179;59.364;18.018;2022-07-22T12:46:45;12.18;;;10.45;;
16147;SDS011;8179;59.364;18.018;2022-07-22T12:49:12;17.05;;;12.68;;
16147;SDS011;8179;59.364;18.018;2022-07-22T12:51:38;12.73;;;10.05;;
16147;SDS011;8179;59.364;18.018;2022-07-22T12:54:04;13.90;;;11.63;;
16147;SDS011;8179;59.364;18.018;2022-07-22T12:56:30;15.13;;;12.13;;
16147;SDS011;8179;59.364;18.018;2022-07-22T12:58:59;15.40;;;11.65;;
16147;SDS011;8179;59.364;18.018;2022-07-22T13:01:26;17.13;;;11.98;;
16147;SDS011;8179;59.364;18.018;2022-07-22T13:03:52;12.20;;;11.05;;
16147;SDS011;8179;59.364;18.018;2022-07-22T13:06:19;12.55;;;10.27;;
16147;SDS011;8179;59.364;18.018;2022-07-22T13:08:45;13.20;;;11.05;;
16147;SDS011;8179;59.364;18.018;2022-07-22T13:11:12;14.85;;;10.32;;
16147;SDS011;8179;59.364;18.018;2022-07-22T13:13:44;11.57;;;10.23;;
16147;SDS011;8179;59.364;18.018;2022-07-22T13:16:13;13.15;;;10.27;;
16147;SDS011;8179;59.364;18.018;2022-07-22T13:18:40;12.98;;;10.40;;
16147;SDS011;8179;59.364;18.018;2022-07-22T13:21:06;17.38;;;11.73;;
16147;SDS011;8179;59.364;18.018;2022-07-22T13:23:33;12.82;;;11.52;;
16147;SDS011;8179;59.364;18.018;2022-07-22T13:25:59;14.45;;;11.80;;
16147;SDS011;8179;59.364;18.018;2022-07-22T13:28:25;15.60;;;12.50;;
16147;SDS011;8179;59.364;18.018;2022-07-22T13:30:52;12.73;;;11.02;;
16147;SDS011;8179;59.364;18.018;2022-07-22T13:33:20;13.05;;;10.20;;
16147;SDS011;8179;59.364;18.018;2022-07-22T13:35:46;12.88;;;11.18;;
16147;SDS011;8179;59.364;18.018;2022-07-22T13:38:12;18.67;;;11.65;;
16147;SDS011;8179;59.364;18.018;2022-07-22T13:40:41;14.25;;;11.25;;
16147;SDS011;8179;59.364;18.018;2022-07-22T13:43:07;11.68;;;10.43;;
16147;SDS011;8179;59.364;18.018;2022-07-22T13:45:34;15.20;;;11.30;;
16147;SDS011;8179;59.364;18.018;2022-07-22T13:48:02;13.15;;;10.90;;
16147;SDS011;8179;59.364;18.018;2022-07-22T13:50:29;15.93;;;10.63;;
16147;SDS011;8179;59.364;18.018;2022-07-22T13:52:56;12.75;;;11.45;;
16147;SDS011;8179;59.364;18.018;2022-07-22T13:55:22;13.32;;;10.88;;
16147;SDS011;8179;59.364;18.018;2022-07-22T13:57:48;9.52;;;8.65;;
16147;SDS011;8179;59.364;18.018;2022-07-22T14:00:15;13.60;;;11.18;;
16147;SDS011;8179;59.364;18.018;2022-07-22T14:02:42;15.85;;;14.10;;
16147;SDS011;8179;59.364;18.018;2022-07-22T14:05:09;16.83;;;11.30;;
16147;SDS011;8179;59.364;18.018;2022-07-22T14:07:37;13.50;;;12.10;;
16147;SDS011;8179;59.364;18.018;2022-07-22T14:10:04;13.73;;;10.27;;
16147;SDS011;8179;59.364;18.018;2022-07-22T14:12:30;14.60;;;12.90;;
16147;SDS011;8179;59.364;18.018;2022-07-22T14:14:57;15.20;;;13.38;;
16147;SDS011;8179;59.364;18.018;2022-07-22T14:17:23;12.93;;;11.63;;
16147;SDS011;8179;59.364;18.018;2022-07-22T14:19:49;14.18;;;12.55;;
16147;SDS011;8179;59.364;18.018;2022-07-22T14:22:16;15.43;;;12.43;;
16147;SDS011;8179;59.364;18.018;2022-07-22T14:24:43;17.45;;;12.30;;
16147;SDS011;8179;59.364;18.018;2022-07-22T14:27:10;14.18;;;11.85;;
16147;SDS011;8179;59.364;18.018;2022-07-22T14:29:36;14.32;;;11.75;;